Terminal Aerodrome Forecast
Issued by NWS

Current Version | Previous Version | Graphics & Text | Print | Product List | Glossary On
Versions: 1 2 3 4 5 6 7 8 9 10 11 12 13 14 15 16 17 18 19 20 21 22 23 24
000
FTUS41 KILN 260900 AAA
TAFLUK
TAF AMD
KLUK 260924Z 2609/2706 02009KT 5SM -SHRA BR SCT018 OVC050
     FM261200 33010G20KT 4SM -SHRA BR OVC018
     FM262000 32010G20KT 5SM BR OVC025
     FM262300 32013KT P6SM SCT040 BKN100=

USA.gov is the U.S. government's official web portal to all federal, state and local government web resources and services.